createdAt,value
2022-11-14T00:01:48.139Z,16.53
2022-11-14T00:07:14.764Z,15.17
2022-11-14T00:12:55.496Z,16.07
2022-11-14T00:18:24.540Z,16.43
2022-11-14T00:23:57.748Z,16.33
2022-11-14T00:29:27.152Z,14.90
2022-11-14T05:31:04.902Z,14.33
2022-11-14T05:36:17.509Z,13.70
2022-11-14T05:41:20.623Z,12.43
2022-11-14T05:46:23.527Z,11.40
2022-11-14T05:51:26.383Z,12.37
2022-11-14T05:56:29.266Z,14.03
2022-11-14T06:01:32.234Z,12.83
2022-11-14T06:06:35.216Z,14.37
2022-11-14T06:11:38.112Z,12.83
2022-11-14T06:16:41.025Z,13.93
2022-11-14T06:21:43.929Z,13.03
2022-11-14T06:26:46.709Z,12.00
2022-11-14T06:31:49.468Z,13.27
2022-11-14T06:36:54.901Z,11.77
2022-11-14T06:41:57.783Z,13.43
2022-11-14T06:47:02.201Z,11.93
2022-11-14T06:52:05.125Z,12.90
2022-11-14T06:57:08.077Z,12.17
2022-11-14T07:02:20.478Z,10.67
2022-11-14T07:07:24.811Z,11.30
2022-11-14T07:12:29.568Z,11.10
2022-11-14T07:17:34.580Z,9.50
2022-11-14T07:22:37.360Z,9.80
2022-11-14T07:27:40.569Z,10.67
2022-11-14T07:32:43.388Z,9.13
2022-11-14T07:37:46.176Z,11.27
2022-11-14T07:42:48.979Z,13.70
2022-11-14T07:47:55.969Z,12.50
2022-11-14T07:52:58.979Z,10.77
2022-11-14T07:58:01.870Z,10.90
2022-11-14T08:03:06.404Z,10.93
2022-11-14T08:08:09.141Z,11.57
2022-11-14T08:18:34.926Z,13.23
2022-11-14T08:23:38.825Z,14.97
2022-11-14T08:28:41.634Z,12.97
2022-11-14T08:33:44.435Z,13.83
2022-11-14T08:38:48.689Z,12.80
2022-11-14T08:43:54.158Z,13.43
2022-11-14T08:48:56.947Z,14.03
2022-11-14T08:53:59.729Z,13.47
2022-11-14T08:59:05.964Z,13.63
2022-11-14T09:04:09.156Z,13.80
2022-11-14T09:09:12.088Z,11.63
2022-11-14T09:14:14.865Z,13.17
2022-11-14T09:19:17.726Z,13.07
2022-11-14T09:24:20.618Z,12.80
2022-11-14T09:29:23.367Z,14.47
2022-11-14T09:34:26.167Z,15.00
2022-11-14T09:39:28.904Z,12.70
2022-11-14T09:44:50.698Z,13.77
2022-11-14T09:49:56.586Z,17.10
2022-11-14T09:55:36.905Z,14.07
2022-11-14T10:00:52.373Z,15.43
2022-11-14T10:06:30.279Z,15.37
2022-11-14T10:11:45.037Z,15.67
2022-11-14T10:17:24.707Z,15.73
2022-11-14T10:23:15.449Z,16.90
2022-11-14T10:28:39.951Z,15.00
2022-11-14T10:34:04.463Z,16.37
2022-11-14T10:39:22.639Z,14.90
2022-11-14T10:44:37.209Z,17.00
2022-11-14T10:49:40.092Z,16.57
2022-11-14T10:54:46.418Z,16.10
2022-11-14T10:59:49.577Z,18.67
2022-11-14T11:04:52.362Z,18.87
2022-11-14T11:10:19.224Z,18.77
2022-11-14T11:15:24.167Z,16.93
2022-11-14T11:20:43.046Z,18.63
2022-11-14T11:25:45.853Z,21.73
2022-11-14T11:30:57.449Z,23.63
2022-11-14T11:36:11.341Z,23.60
2022-11-14T11:46:59.188Z,22.17
2022-11-14T11:52:17.426Z,22.47
2022-11-14T11:57:25.208Z,20.50
2022-11-14T12:02:29.411Z,21.70
2022-11-14T12:07:39.470Z,23.20
2022-11-14T12:12:45.363Z,25.63
2022-11-14T12:18:12.819Z,23.70
2022-11-14T12:23:33.352Z,27.03
2022-11-14T12:28:48.449Z,27.07
2022-11-14T12:33:59.482Z,26.93
2022-11-14T12:39:02.963Z,26.20
2022-11-14T12:44:35.356Z,30.43
2022-11-14T12:49:53.621Z,32.27
2022-11-14T12:54:56.521Z,23.17
2022-11-14T13:00:04.585Z,23.83
2022-11-14T13:05:38.789Z,23.23
2022-11-14T13:10:42.076Z,23.17
2022-11-14T13:16:32.081Z,23.00
2022-11-14T13:21:47.254Z,21.50
2022-11-14T13:26:54.186Z,21.13
2022-11-14T13:31:57.400Z,26.83
2022-11-14T13:37:29.352Z,22.37
2022-11-14T13:42:53.328Z,22.53
2022-11-14T13:48:19.623Z,17.37
2022-11-14T13:53:26.705Z,18.13
2022-11-14T13:58:35.509Z,16.03
2022-11-14T14:04:02.540Z,16.03
2022-11-14T14:09:38.896Z,14.73
2022-11-14T14:15:07.187Z,13.87
2022-11-14T14:20:43.820Z,13.47
2022-11-14T14:26:15.428Z,14.00
2022-11-14T14:31:27.982Z,14.13
2022-11-14T14:36:32.601Z,16.00
2022-11-14T14:41:35.752Z,15.03
2022-11-14T14:46:38.799Z,15.03
2022-11-14T14:51:42.891Z,14.60
2022-11-14T14:57:00.104Z,15.50
2022-11-14T15:02:03.229Z,16.07
2022-11-14T15:07:08.798Z,16.43
2022-11-14T15:12:12.055Z,16.30
2022-11-14T15:17:14.979Z,16.80
2022-11-14T15:22:21.115Z,16.93
2022-11-14T15:27:23.990Z,17.13
2022-11-14T15:32:26.948Z,20.37
2022-11-14T15:37:29.722Z,18.03
2022-11-14T15:42:34.088Z,17.43
2022-11-14T15:47:40.161Z,16.57
2022-11-14T15:53:06.575Z,17.97
2022-11-14T15:58:27.680Z,17.40
2022-11-14T16:03:32.050Z,16.33
2022-11-14T16:08:35.207Z,16.43
2022-11-14T16:13:38.163Z,15.83
2022-11-14T16:18:43.933Z,17.10
2022-11-14T16:23:47.296Z,16.60
2022-11-14T16:28:50.177Z,17.03
2022-11-14T16:33:53.191Z,16.90
2022-11-14T16:39:01.355Z,16.17
2022-11-14T16:44:04.316Z,16.63
2022-11-14T16:49:07.242Z,17.93
2022-11-14T16:54:16.235Z,18.43
2022-11-14T16:59:19.238Z,18.43
2022-11-14T17:04:22.217Z,17.33
2022-11-14T17:09:27.295Z,16.10
2022-11-14T17:14:30.185Z,17.90
2022-11-14T17:19:33.191Z,18.40
2022-11-14T17:24:36.173Z,17.27
2022-11-14T17:29:43.780Z,18.30
2022-11-14T17:34:46.679Z,17.57
2022-11-14T17:39:49.498Z,17.40
2022-11-14T17:44:53.094Z,18.20
2022-11-14T17:49:56.038Z,18.67
2022-11-14T17:54:59.009Z,18.77
2022-11-14T18:00:03.393Z,19.80
2022-11-14T18:05:06.814Z,18.67
2022-11-14T18:10:10.023Z,17.50
2022-11-14T18:15:15.142Z,17.33
2022-11-14T18:20:18.144Z,16.37
2022-11-14T18:25:21.065Z,15.37
2022-11-14T18:35:58.713Z,16.83
2022-11-14T18:41:07.603Z,16.63
2022-11-14T18:46:15.350Z,16.33
2022-11-14T18:51:20.538Z,16.20
2022-11-14T18:56:25.676Z,16.50
2022-11-14T19:01:32.100Z,16.73
2022-11-14T19:06:36.984Z,21.30
2022-11-14T19:11:58.588Z,21.07
2022-11-14T19:17:02.743Z,16.87
2022-11-14T19:22:06.776Z,18.17
2022-11-14T19:27:14.525Z,20.43
2022-11-14T19:32:17.461Z,20.27
2022-11-14T19:37:20.491Z,20.47
2022-11-14T19:42:23.494Z,19.63
2022-11-14T19:47:26.410Z,19.33
2022-11-14T19:52:31.961Z,19.87
2022-11-14T19:57:34.854Z,18.37
2022-11-14T20:02:40.627Z,16.50
2022-11-14T20:07:43.500Z,15.40
2022-11-14T20:12:46.314Z,17.20
2022-11-14T20:17:49.135Z,18.00
2022-11-14T20:22:52.072Z,17.63
2022-11-14T20:27:55.055Z,16.20
2022-11-14T20:32:57.944Z,17.73
2022-11-14T20:38:04.444Z,17.97
2022-11-14T20:43:09.309Z,16.73
2022-11-14T20:48:14.364Z,17.77
2022-11-14T20:53:21.244Z,17.83
2022-11-14T20:58:33.394Z,18.30
2022-11-14T21:03:36.667Z,15.93
2022-11-14T21:08:40.128Z,15.00
2022-11-14T21:13:58.899Z,16.87
2022-11-14T21:19:04.866Z,16.70
2022-11-14T21:24:07.920Z,17.77
2022-11-14T21:29:13.173Z,17.70
2022-11-14T21:34:19.818Z,15.63
2022-11-14T21:39:22.873Z,15.00
2022-11-14T21:44:25.653Z,16.43
2022-11-14T21:49:30.365Z,16.33
2022-11-14T21:54:33.303Z,16.67
2022-11-14T21:59:36.389Z,16.20
2022-11-14T22:04:39.317Z,17.90
2022-11-14T22:09:45.330Z,18.70
2022-11-14T22:14:48.408Z,20.37
2022-11-14T22:19:51.271Z,18.93
2022-11-14T22:24:54.172Z,20.03
2022-11-14T22:29:57.111Z,20.20
2022-11-14T22:34:59.885Z,19.20
2022-11-14T22:40:14.667Z,22.27
2022-11-14T22:45:33.604Z,20.53
2022-11-14T22:50:43.200Z,21.03
2022-11-14T22:55:53.443Z,19.53
2022-11-14T23:00:59.960Z,19.87
2022-11-14T23:06:27.252Z,21.87
2022-11-14T23:11:39.756Z,20.00
2022-11-14T23:17:03.112Z,19.20
2022-11-14T23:22:32.448Z,17.37
2022-11-14T23:27:41.386Z,17.67
2022-11-14T23:32:50.620Z,15.30
2022-11-14T23:38:04.912Z,17.07
2022-11-14T23:43:21.772Z,16.53
2022-11-14T23:48:32.352Z,16.23
2022-11-14T23:53:54.868Z,16.47
2022-11-14T23:59:07.389Z,15.83
